sensor_id;sensor_type;location;lat;lon;timestamp;P1;durP1;ratioP1;P2;durP2;ratioP2
3567;SDS011;1798;48.486;9.232;2023-06-04T00:01:10;13.87;;;8.37;;
3567;SDS011;1798;48.486;9.232;2023-06-04T00:03:36;16.40;;;9.13;;
3567;SDS011;1798;48.486;9.232;2023-06-04T00:06:03;16.17;;;9.90;;
3567;SDS011;1798;48.486;9.232;2023-06-04T00:08:30;19.63;;;9.00;;
3567;SDS011;1798;48.486;9.232;2023-06-04T00:10:58;26.47;;;10.43;;
3567;SDS011;1798;48.486;9.232;2023-06-04T00:13:25;19.13;;;10.47;;
3567;SDS011;1798;48.486;9.232;2023-06-04T00:15:51;18.70;;;9.00;;
3567;SDS011;1798;48.486;9.232;2023-06-04T00:18:18;17.87;;;10.57;;
3567;SDS011;1798;48.486;9.232;2023-06-04T00:20:45;18.07;;;9.20;;
3567;SDS011;1798;48.486;9.232;2023-06-04T00:23:12;27.17;;;10.20;;
3567;SDS011;1798;48.486;9.232;2023-06-04T00:25:38;23.80;;;10.27;;
3567;SDS011;1798;48.486;9.232;2023-06-04T00:28:06;16.63;;;8.80;;
3567;SDS011;1798;48.486;9.232;2023-06-04T00:30:33;14.83;;;7.97;;
3567;SDS011;1798;48.486;9.232;2023-06-04T00:33:00;17.50;;;9.53;;
3567;SDS011;1798;48.486;9.232;2023-06-04T00:35:27;16.97;;;9.43;;
3567;SDS011;1798;48.486;9.232;2023-06-04T00:37:53;15.33;;;8.60;;
3567;SDS011;1798;48.486;9.232;2023-06-04T00:40:20;17.13;;;8.07;;
3567;SDS011;1798;48.486;9.232;2023-06-04T00:42:47;15.87;;;9.00;;
3567;SDS011;1798;48.486;9.232;2023-06-04T00:45:16;14.73;;;8.80;;
3567;SDS011;1798;48.486;9.232;2023-06-04T00:47:45;16.50;;;9.50;;
3567;SDS011;1798;48.486;9.232;2023-06-04T00:50:12;16.10;;;9.20;;
3567;SDS011;1798;48.486;9.232;2023-06-04T00:52:39;12.70;;;7.43;;
3567;SDS011;1798;48.486;9.232;2023-06-04T00:55:06;17.93;;;7.90;;
3567;SDS011;1798;48.486;9.232;2023-06-04T00:57:34;14.80;;;7.67;;
3567;SDS011;1798;48.486;9.232;2023-06-04T01:00:01;24.53;;;8.80;;
3567;SDS011;1798;48.486;9.232;2023-06-04T01:02:31;18.10;;;8.27;;
3567;SDS011;1798;48.486;9.232;2023-06-04T01:05:00;20.03;;;8.53;;
3567;SDS011;1798;48.486;9.232;2023-06-04T01:07:29;16.90;;;7.80;;
3567;SDS011;1798;48.486;9.232;2023-06-04T01:09:56;16.73;;;8.10;;
3567;SDS011;1798;48.486;9.232;2023-06-04T01:12:23;15.37;;;8.13;;
3567;SDS011;1798;48.486;9.232;2023-06-04T01:14:50;20.80;;;8.60;;
3567;SDS011;1798;48.486;9.232;2023-06-04T01:17:17;16.43;;;8.30;;
3567;SDS011;1798;48.486;9.232;2023-06-04T01:22:48;13.90;;;7.63;;
3567;SDS011;1798;48.486;9.232;2023-06-04T01:25:25;14.47;;;8.40;;
3567;SDS011;1798;48.486;9.232;2023-06-04T01:27:55;14.70;;;8.27;;
3567;SDS011;1798;48.486;9.232;2023-06-04T01:30:23;16.10;;;9.10;;
3567;SDS011;1798;48.486;9.232;2023-06-04T01:32:51;13.37;;;7.33;;
3567;SDS011;1798;48.486;9.232;2023-06-04T01:35:20;18.77;;;6.90;;
3567;SDS011;1798;48.486;9.232;2023-06-04T01:37:46;12.70;;;7.30;;
3567;SDS011;1798;48.486;9.232;2023-06-04T01:40:13;15.87;;;8.33;;
3567;SDS011;1798;48.486;9.232;2023-06-04T01:42:40;11.53;;;7.10;;
3567;SDS011;1798;48.486;9.232;2023-06-04T01:45:07;14.47;;;7.47;;
3567;SDS011;1798;48.486;9.232;2023-06-04T01:47:35;18.00;;;8.03;;
3567;SDS011;1798;48.486;9.232;2023-06-04T01:50:02;20.77;;;8.33;;
3567;SDS011;1798;48.486;9.232;2023-06-04T01:52:30;22.20;;;7.70;;
3567;SDS011;1798;48.486;9.232;2023-06-04T01:54:57;15.93;;;8.27;;
3567;SDS011;1798;48.486;9.232;2023-06-04T01:57:24;15.10;;;8.10;;
3567;SDS011;1798;48.486;9.232;2023-06-04T01:59:51;18.50;;;7.60;;
3567;SDS011;1798;48.486;9.232;2023-06-04T02:02:18;15.50;;;7.90;;
3567;SDS011;1798;48.486;9.232;2023-06-04T02:04:44;16.20;;;8.17;;
3567;SDS011;1798;48.486;9.232;2023-06-04T02:07:11;22.50;;;10.13;;
3567;SDS011;1798;48.486;9.232;2023-06-04T02:09:44;14.73;;;8.13;;
3567;SDS011;1798;48.486;9.232;2023-06-04T02:12:10;15.40;;;8.07;;
3567;SDS011;1798;48.486;9.232;2023-06-04T02:14:37;27.80;;;8.70;;
3567;SDS011;1798;48.486;9.232;2023-06-04T02:17:04;16.87;;;6.90;;
3567;SDS011;1798;48.486;9.232;2023-06-04T02:19:38;15.17;;;7.50;;
3567;SDS011;1798;48.486;9.232;2023-06-04T02:22:09;17.20;;;7.60;;
3567;SDS011;1798;48.486;9.232;2023-06-04T02:24:36;14.30;;;7.73;;
3567;SDS011;1798;48.486;9.232;2023-06-04T02:27:05;16.93;;;8.17;;
3567;SDS011;1798;48.486;9.232;2023-06-04T02:29:33;14.13;;;8.80;;
3567;SDS011;1798;48.486;9.232;2023-06-04T02:31:59;17.50;;;8.17;;
3567;SDS011;1798;48.486;9.232;2023-06-04T02:34:26;11.83;;;7.13;;
3567;SDS011;1798;48.486;9.232;2023-06-04T02:36:53;14.27;;;8.00;;
3567;SDS011;1798;48.486;9.232;2023-06-04T02:39:19;13.87;;;7.03;;
3567;SDS011;1798;48.486;9.232;2023-06-04T02:41:46;16.23;;;7.33;;
3567;SDS011;1798;48.486;9.232;2023-06-04T02:44:14;12.17;;;7.20;;
3567;SDS011;1798;48.486;9.232;2023-06-04T02:46:41;17.10;;;8.20;;
3567;SDS011;1798;48.486;9.232;2023-06-04T02:49:07;16.30;;;7.60;;
3567;SDS011;1798;48.486;9.232;2023-06-04T02:51:35;23.33;;;7.80;;
3567;SDS011;1798;48.486;9.232;2023-06-04T02:54:02;19.27;;;7.07;;
3567;SDS011;1798;48.486;9.232;2023-06-04T02:56:29;15.43;;;7.77;;
3567;SDS011;1798;48.486;9.232;2023-06-04T02:58:56;11.73;;;7.40;;
3567;SDS011;1798;48.486;9.232;2023-06-04T03:01:24;16.07;;;8.10;;
3567;SDS011;1798;48.486;9.232;2023-06-04T03:03:52;15.80;;;7.97;;
3567;SDS011;1798;48.486;9.232;2023-06-04T03:06:20;17.20;;;8.07;;
3567;SDS011;1798;48.486;9.232;2023-06-04T03:08:48;13.70;;;8.03;;
3567;SDS011;1798;48.486;9.232;2023-06-04T03:11:15;17.07;;;8.17;;
3567;SDS011;1798;48.486;9.232;2023-06-04T03:13:42;12.53;;;7.40;;
3567;SDS011;1798;48.486;9.232;2023-06-04T03:16:09;18.17;;;7.10;;
3567;SDS011;1798;48.486;9.232;2023-06-04T03:18:37;20.70;;;8.60;;
3567;SDS011;1798;48.486;9.232;2023-06-04T03:21:04;17.63;;;7.70;;
3567;SDS011;1798;48.486;9.232;2023-06-04T03:23:31;14.00;;;8.00;;
3567;SDS011;1798;48.486;9.232;2023-06-04T03:25:58;10.53;;;6.87;;
3567;SDS011;1798;48.486;9.232;2023-06-04T03:28:25;21.83;;;8.43;;
3567;SDS011;1798;48.486;9.232;2023-06-04T03:30:52;16.77;;;7.50;;
3567;SDS011;1798;48.486;9.232;2023-06-04T03:33:19;12.93;;;6.60;;
3567;SDS011;1798;48.486;9.232;2023-06-04T03:35:47;15.47;;;7.07;;
3567;SDS011;1798;48.486;9.232;2023-06-04T03:38:14;16.20;;;7.43;;
3567;SDS011;1798;48.486;9.232;2023-06-04T03:40:42;12.40;;;7.10;;
3567;SDS011;1798;48.486;9.232;2023-06-04T03:43:08;17.90;;;8.50;;
3567;SDS011;1798;48.486;9.232;2023-06-04T03:45:35;11.03;;;6.80;;
3567;SDS011;1798;48.486;9.232;2023-06-04T03:48:02;14.07;;;7.30;;
3567;SDS011;1798;48.486;9.232;2023-06-04T03:50:29;16.97;;;7.47;;
3567;SDS011;1798;48.486;9.232;2023-06-04T03:52:57;14.10;;;7.53;;
3567;SDS011;1798;48.486;9.232;2023-06-04T03:55:24;45.40;;;9.53;;
3567;SDS011;1798;48.486;9.232;2023-06-04T03:57:50;16.40;;;8.30;;
3567;SDS011;1798;48.486;9.232;2023-06-04T04:00:17;21.60;;;9.13;;
3567;SDS011;1798;48.486;9.232;2023-06-04T04:02:45;14.60;;;7.90;;
3567;SDS011;1798;48.486;9.232;2023-06-04T04:05:11;13.27;;;7.33;;
3567;SDS011;1798;48.486;9.232;2023-06-04T04:07:39;15.40;;;7.67;;
3567;SDS011;1798;48.486;9.232;2023-06-04T04:10:08;15.30;;;8.07;;
3567;SDS011;1798;48.486;9.232;2023-06-04T04:12:36;16.53;;;6.77;;
3567;SDS011;1798;48.486;9.232;2023-06-04T04:15:03;15.13;;;8.50;;
3567;SDS011;1798;48.486;9.232;2023-06-04T04:17:30;18.70;;;7.77;;
3567;SDS011;1798;48.486;9.232;2023-06-04T04:19:57;13.60;;;8.00;;
3567;SDS011;1798;48.486;9.232;2023-06-04T04:22:24;18.13;;;7.90;;
3567;SDS011;1798;48.486;9.232;2023-06-04T04:24:50;13.33;;;7.87;;
3567;SDS011;1798;48.486;9.232;2023-06-04T04:27:18;13.13;;;7.50;;
3567;SDS011;1798;48.486;9.232;2023-06-04T04:29:45;17.83;;;7.87;;
3567;SDS011;1798;48.486;9.232;2023-06-04T04:32:13;17.00;;;7.47;;
3567;SDS011;1798;48.486;9.232;2023-06-04T04:34:49;13.57;;;8.33;;
3567;SDS011;1798;48.486;9.232;2023-06-04T04:37:17;21.47;;;8.63;;
3567;SDS011;1798;48.486;9.232;2023-06-04T04:39:46;12.60;;;7.53;;
3567;SDS011;1798;48.486;9.232;2023-06-04T04:42:12;14.33;;;7.50;;
3567;SDS011;1798;48.486;9.232;2023-06-04T04:44:41;12.43;;;6.93;;
3567;SDS011;1798;48.486;9.232;2023-06-04T04:47:07;21.00;;;6.37;;
3567;SDS011;1798;48.486;9.232;2023-06-04T04:49:34;18.90;;;7.93;;
3567;SDS011;1798;48.486;9.232;2023-06-04T04:52:01;16.30;;;7.37;;
3567;SDS011;1798;48.486;9.232;2023-06-04T04:54:28;14.30;;;7.17;;
3567;SDS011;1798;48.486;9.232;2023-06-04T04:56:54;12.93;;;6.33;;
3567;SDS011;1798;48.486;9.232;2023-06-04T04:59:21;12.57;;;7.43;;
3567;SDS011;1798;48.486;9.232;2023-06-04T05:01:49;12.60;;;7.50;;
3567;SDS011;1798;48.486;9.232;2023-06-04T05:04:16;13.20;;;6.83;;
3567;SDS011;1798;48.486;9.232;2023-06-04T05:06:42;9.50;;;6.30;;
3567;SDS011;1798;48.486;9.232;2023-06-04T05:09:09;13.60;;;6.40;;
3567;SDS011;1798;48.486;9.232;2023-06-04T05:11:36;19.20;;;7.67;;
3567;SDS011;1798;48.486;9.232;2023-06-04T05:14:02;13.57;;;7.07;;
3567;SDS011;1798;48.486;9.232;2023-06-04T05:16:29;12.13;;;6.63;;
3567;SDS011;1798;48.486;9.232;2023-06-04T05:18:57;12.60;;;7.87;;
3567;SDS011;1798;48.486;9.232;2023-06-04T05:21:25;14.67;;;7.77;;
3567;SDS011;1798;48.486;9.232;2023-06-04T05:23:53;14.60;;;7.83;;
3567;SDS011;1798;48.486;9.232;2023-06-04T05:26:20;15.50;;;6.83;;
3567;SDS011;1798;48.486;9.232;2023-06-04T05:28:48;17.93;;;7.90;;
3567;SDS011;1798;48.486;9.232;2023-06-04T05:31:15;19.53;;;8.87;;
3567;SDS011;1798;48.486;9.232;2023-06-04T05:33:43;16.07;;;8.40;;
3567;SDS011;1798;48.486;9.232;2023-06-04T05:36:11;19.93;;;9.87;;
3567;SDS011;1798;48.486;9.232;2023-06-04T05:38:38;17.40;;;9.77;;
3567;SDS011;1798;48.486;9.232;2023-06-04T05:41:04;21.07;;;9.20;;
3567;SDS011;1798;48.486;9.232;2023-06-04T05:43:31;17.03;;;9.33;;
3567;SDS011;1798;48.486;9.232;2023-06-04T05:45:58;34.43;;;8.93;;
3567;SDS011;1798;48.486;9.232;2023-06-04T05:48:25;20.43;;;9.53;;
3567;SDS011;1798;48.486;9.232;2023-06-04T05:50:51;20.17;;;9.50;;
3567;SDS011;1798;48.486;9.232;2023-06-04T05:53:19;18.87;;;8.57;;
3567;SDS011;1798;48.486;9.232;2023-06-04T05:55:46;31.83;;;9.80;;
3567;SDS011;1798;48.486;9.232;2023-06-04T05:58:12;19.03;;;9.47;;
3567;SDS011;1798;48.486;9.232;2023-06-04T06:00:39;19.53;;;9.03;;
3567;SDS011;1798;48.486;9.232;2023-06-04T06:03:06;14.73;;;7.33;;
3567;SDS011;1798;48.486;9.232;2023-06-04T06:05:35;15.57;;;7.83;;
3567;SDS011;1798;48.486;9.232;2023-06-04T06:08:01;12.30;;;7.53;;
3567;SDS011;1798;48.486;9.232;2023-06-04T06:10:29;18.97;;;8.87;;
3567;SDS011;1798;48.486;9.232;2023-06-04T06:12:56;40.27;;;8.87;;
3567;SDS011;1798;48.486;9.232;2023-06-04T06:15:25;16.80;;;7.80;;
3567;SDS011;1798;48.486;9.232;2023-06-04T06:17:52;14.30;;;7.67;;
3567;SDS011;1798;48.486;9.232;2023-06-04T06:20:19;14.23;;;7.90;;
3567;SDS011;1798;48.486;9.232;2023-06-04T06:22:47;18.33;;;9.40;;
3567;SDS011;1798;48.486;9.232;2023-06-04T06:25:14;20.90;;;8.70;;
3567;SDS011;1798;48.486;9.232;2023-06-04T06:27:42;19.13;;;9.20;;
3567;SDS011;1798;48.486;9.232;2023-06-04T06:30:09;22.03;;;8.03;;
3567;SDS011;1798;48.486;9.232;2023-06-04T06:32:37;28.57;;;8.57;;
3567;SDS011;1798;48.486;9.232;2023-06-04T06:35:04;12.90;;;7.63;;
3567;SDS011;1798;48.486;9.232;2023-06-04T06:37:31;16.50;;;8.40;;
3567;SDS011;1798;48.486;9.232;2023-06-04T06:39:57;21.63;;;8.80;;
3567;SDS011;1798;48.486;9.232;2023-06-04T06:42:24;17.33;;;9.43;;
3567;SDS011;1798;48.486;9.232;2023-06-04T06:44:52;17.60;;;9.93;;
3567;SDS011;1798;48.486;9.232;2023-06-04T06:47:19;15.40;;;9.40;;
3567;SDS011;1798;48.486;9.232;2023-06-04T06:49:46;14.77;;;9.10;;
3567;SDS011;1798;48.486;9.232;2023-06-04T06:52:13;12.80;;;8.20;;
3567;SDS011;1798;48.486;9.232;2023-06-04T06:54:39;16.70;;;8.80;;
3567;SDS011;1798;48.486;9.232;2023-06-04T06:57:06;13.47;;;8.00;;
3567;SDS011;1798;48.486;9.232;2023-06-04T06:59:33;14.73;;;8.10;;
3567;SDS011;1798;48.486;9.232;2023-06-04T07:02:02;13.67;;;8.50;;
3567;SDS011;1798;48.486;9.232;2023-06-04T07:04:29;18.87;;;8.70;;
3567;SDS011;1798;48.486;9.232;2023-06-04T07:06:57;11.97;;;7.80;;
3567;SDS011;1798;48.486;9.232;2023-06-04T07:09:23;16.30;;;8.37;;
3567;SDS011;1798;48.486;9.232;2023-06-04T07:11:50;14.60;;;7.67;;
3567;SDS011;1798;48.486;9.232;2023-06-04T07:14:17;19.97;;;8.17;;
3567;SDS011;1798;48.486;9.232;2023-06-04T07:16:43;11.97;;;7.07;;
3567;SDS011;1798;48.486;9.232;2023-06-04T07:19:12;20.07;;;8.13;;
3567;SDS011;1798;48.486;9.232;2023-06-04T07:21:38;14.93;;;8.33;;
3567;SDS011;1798;48.486;9.232;2023-06-04T07:24:05;18.13;;;8.47;;
3567;SDS011;1798;48.486;9.232;2023-06-04T07:26:32;15.70;;;8.23;;
3567;SDS011;1798;48.486;9.232;2023-06-04T07:28:58;13.07;;;7.50;;
3567;SDS011;1798;48.486;9.232;2023-06-04T07:31:25;16.33;;;7.37;;
3567;SDS011;1798;48.486;9.232;2023-06-04T07:33:52;11.27;;;7.10;;
3567;SDS011;1798;48.486;9.232;2023-06-04T07:36:20;15.13;;;7.50;;
3567;SDS011;1798;48.486;9.232;2023-06-04T07:38:47;11.20;;;6.73;;
3567;SDS011;1798;48.486;9.232;2023-06-04T07:41:14;11.60;;;7.47;;
3567;SDS011;1798;48.486;9.232;2023-06-04T07:43:42;13.30;;;8.43;;
3567;SDS011;1798;48.486;9.232;2023-06-04T07:46:09;12.10;;;7.60;;
3567;SDS011;1798;48.486;9.232;2023-06-04T07:48:36;10.80;;;6.90;;
3567;SDS011;1798;48.486;9.232;2023-06-04T07:51:03;27.73;;;9.30;;
3567;SDS011;1798;48.486;9.232;2023-06-04T07:53:31;15.83;;;7.63;;
3567;SDS011;1798;48.486;9.232;2023-06-04T07:55:58;13.80;;;7.23;;
3567;SDS011;1798;48.486;9.232;2023-06-04T07:58:25;12.03;;;7.43;;
3567;SDS011;1798;48.486;9.232;2023-06-04T08:00:52;12.80;;;6.90;;
3567;SDS011;1798;48.486;9.232;2023-06-04T08:03:20;13.07;;;7.53;;
3567;SDS011;1798;48.486;9.232;2023-06-04T08:05:47;12.13;;;7.00;;
3567;SDS011;1798;48.486;9.232;2023-06-04T08:08:13;13.70;;;6.50;;
3567;SDS011;1798;48.486;9.232;2023-06-04T08:10:42;23.40;;;7.33;;
3567;SDS011;1798;48.486;9.232;2023-06-04T08:13:09;13.27;;;6.83;;
3567;SDS011;1798;48.486;9.232;2023-06-04T08:15:36;12.57;;;7.47;;
3567;SDS011;1798;48.486;9.232;2023-06-04T08:18:02;21.77;;;7.67;;
3567;SDS011;1798;48.486;9.232;2023-06-04T08:20:29;13.73;;;7.57;;
3567;SDS011;1798;48.486;9.232;2023-06-04T08:22:56;16.20;;;7.90;;
3567;SDS011;1798;48.486;9.232;2023-06-04T08:25:23;15.60;;;6.77;;
3567;SDS011;1798;48.486;9.232;2023-06-04T08:27:51;10.50;;;6.37;;
3567;SDS011;1798;48.486;9.232;2023-06-04T08:30:18;11.73;;;6.57;;
3567;SDS011;1798;48.486;9.232;2023-06-04T08:32:45;12.93;;;7.83;;
3567;SDS011;1798;48.486;9.232;2023-06-04T08:35:11;11.87;;;6.93;;
3567;SDS011;1798;48.486;9.232;2023-06-04T08:37:39;11.10;;;6.70;;
3567;SDS011;1798;48.486;9.232;2023-06-04T08:40:06;19.33;;;6.97;;
3567;SDS011;1798;48.486;9.232;2023-06-04T08:42:36;19.33;;;8.53;;
3567;SDS011;1798;48.486;9.232;2023-06-04T08:45:06;10.53;;;5.80;;
3567;SDS011;1798;48.486;9.232;2023-06-04T08:47:36;17.87;;;6.87;;
3567;SDS011;1798;48.486;9.232;2023-06-04T08:50:03;13.63;;;7.30;;
3567;SDS011;1798;48.486;9.232;2023-06-04T08:52:31;13.97;;;7.17;;
3567;SDS011;1798;48.486;9.232;2023-06-04T08:54:58;12.70;;;6.90;;
3567;SDS011;1798;48.486;9.232;2023-06-04T08:57:25;15.57;;;6.30;;
3567;SDS011;1798;48.486;9.232;2023-06-04T08:59:52;11.40;;;6.27;;
3567;SDS011;1798;48.486;9.232;2023-06-04T09:02:20;11.40;;;7.00;;
3567;SDS011;1798;48.486;9.232;2023-06-04T09:04:47;13.30;;;5.80;;
3567;SDS011;1798;48.486;9.232;2023-06-04T09:07:14;14.90;;;6.90;;
3567;SDS011;1798;48.486;9.232;2023-06-04T09:09:41;12.87;;;6.00;;
3567;SDS011;1798;48.486;9.232;2023-06-04T09:12:12;14.10;;;6.63;;
3567;SDS011;1798;48.486;9.232;2023-06-04T09:14:43;15.03;;;6.50;;
3567;SDS011;1798;48.486;9.232;2023-06-04T09:17:09;11.23;;;6.03;;
3567;SDS011;1798;48.486;9.232;2023-06-04T09:19:37;14.53;;;6.17;;
3567;SDS011;1798;48.486;9.232;2023-06-04T09:22:04;11.17;;;6.60;;
3567;SDS011;1798;48.486;9.232;2023-06-04T09:24:38;12.73;;;6.70;;
3567;SDS011;1798;48.486;9.232;2023-06-04T09:27:09;11.17;;;5.33;;
3567;SDS011;1798;48.486;9.232;2023-06-04T09:29:37;16.47;;;6.97;;
3567;SDS011;1798;48.486;9.232;2023-06-04T09:32:04;11.13;;;6.10;;
3567;SDS011;1798;48.486;9.232;2023-06-04T09:34:31;14.20;;;6.37;;
3567;SDS011;1798;48.486;9.232;2023-06-04T09:36:59;18.83;;;6.77;;
3567;SDS011;1798;48.486;9.232;2023-06-04T09:39:26;21.03;;;7.20;;
3567;SDS011;1798;48.486;9.232;2023-06-04T09:41:59;11.93;;;6.80;;
3567;SDS011;1798;48.486;9.232;2023-06-04T09:44:27;26.77;;;6.93;;
3567;SDS011;1798;48.486;9.232;2023-06-04T09:46:54;11.90;;;6.17;;
3567;SDS011;1798;48.486;9.232;2023-06-04T09:49:21;11.17;;;5.40;;
3567;SDS011;1798;48.486;9.232;2023-06-04T09:51:48;12.10;;;6.33;;
3567;SDS011;1798;48.486;9.232;2023-06-04T09:54:16;19.20;;;7.00;;
3567;SDS011;1798;48.486;9.232;2023-06-04T09:56:43;14.03;;;5.87;;
3567;SDS011;1798;48.486;9.232;2023-06-04T09:59:10;11.10;;;6.60;;
3567;SDS011;1798;48.486;9.232;2023-06-04T10:01:38;14.70;;;5.90;;
3567;SDS011;1798;48.486;9.232;2023-06-04T10:04:06;26.70;;;6.73;;
3567;SDS011;1798;48.486;9.232;2023-06-04T10:06:34;15.33;;;7.20;;
3567;SDS011;1798;48.486;9.232;2023-06-04T10:09:04;12.93;;;7.00;;
3567;SDS011;1798;48.486;9.232;2023-06-04T10:11:35;9.57;;;6.27;;
3567;SDS011;1798;48.486;9.232;2023-06-04T10:14:02;17.97;;;6.83;;
3567;SDS011;1798;48.486;9.232;2023-06-04T10:16:30;17.60;;;8.07;;
3567;SDS011;1798;48.486;9.232;2023-06-04T10:18:57;17.10;;;6.40;;
3567;SDS011;1798;48.486;9.232;2023-06-04T10:21:25;25.67;;;7.13;;
3567;SDS011;1798;48.486;9.232;2023-06-04T10:23:52;21.77;;;7.60;;
3567;SDS011;1798;48.486;9.232;2023-06-04T10:26:19;14.80;;;7.00;;
3567;SDS011;1798;48.486;9.232;2023-06-04T10:28:48;12.67;;;6.90;;
3567;SDS011;1798;48.486;9.232;2023-06-04T10:31:15;14.13;;;6.30;;
3567;SDS011;1798;48.486;9.232;2023-06-04T10:33:42;13.13;;;7.13;;
3567;SDS011;1798;48.486;9.232;2023-06-04T10:36:15;11.53;;;7.40;;
3567;SDS011;1798;48.486;9.232;2023-06-04T10:38:46;14.80;;;6.90;;
3567;SDS011;1798;48.486;9.232;2023-06-04T10:41:14;16.23;;;7.20;;
3567;SDS011;1798;48.486;9.232;2023-06-04T10:43:41;16.27;;;7.60;;
3567;SDS011;1798;48.486;9.232;2023-06-04T10:46:13;15.83;;;7.63;;
3567;SDS011;1798;48.486;9.232;2023-06-04T10:48:48;38.77;;;9.50;;
3567;SDS011;1798;48.486;9.232;2023-06-04T10:51:15;30.40;;;8.57;;
3567;SDS011;1798;48.486;9.232;2023-06-04T10:53:42;12.03;;;7.70;;
3567;SDS011;1798;48.486;9.232;2023-06-04T10:56:10;15.10;;;7.67;;
3567;SDS011;1798;48.486;9.232;2023-06-04T10:58:36;11.73;;;6.80;;
3567;SDS011;1798;48.486;9.232;2023-06-04T11:01:03;19.47;;;7.40;;
3567;SDS011;1798;48.486;9.232;2023-06-04T11:03:37;18.00;;;7.33;;
3567;SDS011;1798;48.486;9.232;2023-06-04T11:06:14;13.20;;;7.70;;
3567;SDS011;1798;48.486;9.232;2023-06-04T11:08:42;13.90;;;7.67;;
3567;SDS011;1798;48.486;9.232;2023-06-04T11:11:13;14.37;;;6.60;;
3567;SDS011;1798;48.486;9.232;2023-06-04T11:13:40;10.83;;;6.30;;
3567;SDS011;1798;48.486;9.232;2023-06-04T11:16:16;14.67;;;6.87;;
3567;SDS011;1798;48.486;9.232;2023-06-04T11:18:49;16.57;;;7.87;;
3567;SDS011;1798;48.486;9.232;2023-06-04T11:21:20;14.63;;;8.70;;
3567;SDS011;1798;48.486;9.232;2023-06-04T11:23:47;28.30;;;8.67;;
3567;SDS011;1798;48.486;9.232;2023-06-04T11:26:14;12.57;;;7.60;;
3567;SDS011;1798;48.486;9.232;2023-06-04T11:28:40;13.87;;;6.37;;
3567;SDS011;1798;48.486;9.232;2023-06-04T11:31:07;13.97;;;7.83;;
3567;SDS011;1798;48.486;9.232;2023-06-04T11:33:45;11.53;;;7.20;;
3567;SDS011;1798;48.486;9.232;2023-06-04T11:36:21;12.83;;;6.73;;
3567;SDS011;1798;48.486;9.232;2023-06-04T11:38:53;11.47;;;6.43;;
3567;SDS011;1798;48.486;9.232;2023-06-04T11:41:20;12.40;;;7.17;;
3567;SDS011;1798;48.486;9.232;2023-06-04T11:43:47;16.80;;;8.10;;
3567;SDS011;1798;48.486;9.232;2023-06-04T11:46:14;15.17;;;8.30;;
3567;SDS011;1798;48.486;9.232;2023-06-04T11:48:41;12.77;;;7.60;;
3567;SDS011;1798;48.486;9.232;2023-06-04T11:51:09;12.73;;;7.17;;
3567;SDS011;1798;48.486;9.232;2023-06-04T11:53:36;15.83;;;8.13;;
3567;SDS011;1798;48.486;9.232;2023-06-04T11:56:03;16.50;;;8.63;;
3567;SDS011;1798;48.486;9.232;2023-06-04T11:58:30;15.87;;;7.40;;
3567;SDS011;1798;48.486;9.232;2023-06-04T12:00:57;18.90;;;7.87;;
3567;SDS011;1798;48.486;9.232;2023-06-04T12:06:12;11.40;;;6.80;;
3567;SDS011;1798;48.486;9.232;2023-06-04T12:08:50;22.53;;;7.90;;
3567;SDS011;1798;48.486;9.232;2023-06-04T12:11:27;13.10;;;7.40;;
3567;SDS011;1798;48.486;9.232;2023-06-04T12:13:56;39.57;;;8.20;;
3567;SDS011;1798;48.486;9.232;2023-06-04T12:16:23;16.60;;;7.10;;
3567;SDS011;1798;48.486;9.232;2023-06-04T12:18:50;15.33;;;8.37;;
3567;SDS011;1798;48.486;9.232;2023-06-04T12:21:20;14.20;;;7.60;;
3567;SDS011;1798;48.486;9.232;2023-06-04T12:23:52;12.43;;;6.80;;
3567;SDS011;1798;48.486;9.232;2023-06-04T12:26:20;18.57;;;7.73;;
3567;SDS011;1798;48.486;9.232;2023-06-04T12:29:00;15.23;;;7.00;;
3567;SDS011;1798;48.486;9.232;2023-06-04T12:31:27;23.67;;;7.40;;
3567;SDS011;1798;48.486;9.232;2023-06-04T12:33:57;12.10;;;6.90;;
3567;SDS011;1798;48.486;9.232;2023-06-04T12:36:26;11.13;;;7.00;;
3567;SDS011;1798;48.486;9.232;2023-06-04T12:38:53;11.50;;;6.43;;
3567;SDS011;1798;48.486;9.232;2023-06-04T12:41:24;14.47;;;7.73;;
3567;SDS011;1798;48.486;9.232;2023-06-04T12:43:51;16.40;;;8.93;;
3567;SDS011;1798;48.486;9.232;2023-06-04T12:46:18;21.07;;;7.63;;
3567;SDS011;1798;48.486;9.232;2023-06-04T12:48:44;12.13;;;7.40;;
3567;SDS011;1798;48.486;9.232;2023-06-04T12:51:11;12.60;;;7.57;;
3567;SDS011;1798;48.486;9.232;2023-06-04T12:53:39;17.60;;;8.50;;
3567;SDS011;1798;48.486;9.232;2023-06-04T12:56:06;13.17;;;7.60;;
3567;SDS011;1798;48.486;9.232;2023-06-04T12:58:33;12.17;;;7.53;;
3567;SDS011;1798;48.486;9.232;2023-06-04T13:01:00;18.60;;;7.73;;
3567;SDS011;1798;48.486;9.232;2023-06-04T13:03:27;20.43;;;8.23;;
3567;SDS011;1798;48.486;9.232;2023-06-04T13:05:53;11.93;;;7.70;;
3567;SDS011;1798;48.486;9.232;2023-06-04T13:08:20;15.47;;;7.27;;
3567;SDS011;1798;48.486;9.232;2023-06-04T13:10:50;12.67;;;7.37;;
3567;SDS011;1798;48.486;9.232;2023-06-04T13:13:18;21.60;;;8.77;;
3567;SDS011;1798;48.486;9.232;2023-06-04T13:15:45;82.57;;;9.37;;
3567;SDS011;1798;48.486;9.232;2023-06-04T13:18:12;14.60;;;7.40;;
3567;SDS011;1798;48.486;9.232;2023-06-04T13:20:39;17.97;;;9.03;;
3567;SDS011;1798;48.486;9.232;2023-06-04T13:23:06;17.93;;;7.60;;
3567;SDS011;1798;48.486;9.232;2023-06-04T13:25:33;12.40;;;7.83;;
3567;SDS011;1798;48.486;9.232;2023-06-04T13:28:02;17.50;;;7.20;;
3567;SDS011;1798;48.486;9.232;2023-06-04T13:30:29;19.10;;;8.27;;
3567;SDS011;1798;48.486;9.232;2023-06-04T13:32:55;16.00;;;7.93;;
3567;SDS011;1798;48.486;9.232;2023-06-04T13:35:23;24.30;;;8.10;;
3567;SDS011;1798;48.486;9.232;2023-06-04T13:37:50;12.40;;;7.20;;
3567;SDS011;1798;48.486;9.232;2023-06-04T13:40:18;14.33;;;8.57;;
3567;SDS011;1798;48.486;9.232;2023-06-04T13:42:45;13.33;;;7.87;;
3567;SDS011;1798;48.486;9.232;2023-06-04T13:45:13;14.27;;;7.47;;
3567;SDS011;1798;48.486;9.232;2023-06-04T13:47:41;14.43;;;7.97;;
3567;SDS011;1798;48.486;9.232;2023-06-04T13:50:09;13.63;;;8.27;;
3567;SDS011;1798;48.486;9.232;2023-06-04T13:52:36;15.03;;;8.90;;
3567;SDS011;1798;48.486;9.232;2023-06-04T13:55:03;17.20;;;8.90;;
3567;SDS011;1798;48.486;9.232;2023-06-04T13:57:30;12.40;;;7.80;;
3567;SDS011;1798;48.486;9.232;2023-06-04T13:59:56;16.43;;;8.87;;
3567;SDS011;1798;48.486;9.232;2023-06-04T14:02:24;12.17;;;7.43;;
3567;SDS011;1798;48.486;9.232;2023-06-04T14:04:51;12.83;;;8.00;;
3567;SDS011;1798;48.486;9.232;2023-06-04T14:07:19;11.87;;;7.77;;
3567;SDS011;1798;48.486;9.232;2023-06-04T14:09:46;15.77;;;8.60;;
3567;SDS011;1798;48.486;9.232;2023-06-04T14:12:13;16.20;;;7.80;;
3567;SDS011;1798;48.486;9.232;2023-06-04T14:14:43;14.60;;;8.83;;
3567;SDS011;1798;48.486;9.232;2023-06-04T14:17:09;21.80;;;9.63;;
3567;SDS011;1798;48.486;9.232;2023-06-04T14:19:37;15.43;;;8.00;;
3567;SDS011;1798;48.486;9.232;2023-06-04T14:22:05;19.27;;;9.23;;
3567;SDS011;1798;48.486;9.232;2023-06-04T14:24:32;13.57;;;8.87;;
3567;SDS011;1798;48.486;9.232;2023-06-04T14:26:58;12.53;;;7.67;;
3567;SDS011;1798;48.486;9.232;2023-06-04T14:29:25;13.17;;;8.10;;
3567;SDS011;1798;48.486;9.232;2023-06-04T14:31:52;16.53;;;7.57;;
3567;SDS011;1798;48.486;9.232;2023-06-04T14:34:19;15.47;;;7.77;;
3567;SDS011;1798;48.486;9.232;2023-06-04T14:36:47;13.57;;;7.80;;
3567;SDS011;1798;48.486;9.232;2023-06-04T14:39:14;14.70;;;8.03;;
3567;SDS011;1798;48.486;9.232;2023-06-04T14:41:41;14.50;;;8.63;;
3567;SDS011;1798;48.486;9.232;2023-06-04T14:44:07;17.37;;;8.87;;
3567;SDS011;1798;48.486;9.232;2023-06-04T14:46:34;11.30;;;7.00;;
3567;SDS011;1798;48.486;9.232;2023-06-04T14:49:01;15.57;;;8.10;;
3567;SDS011;1798;48.486;9.232;2023-06-04T14:51:27;15.50;;;8.57;;
3567;SDS011;1798;48.486;9.232;2023-06-04T14:53:55;16.20;;;8.87;;
3567;SDS011;1798;48.486;9.232;2023-06-04T14:56:22;16.17;;;9.30;;
3567;SDS011;1798;48.486;9.232;2023-06-04T14:58:50;15.03;;;8.80;;
3567;SDS011;1798;48.486;9.232;2023-06-04T15:01:17;12.90;;;7.60;;
3567;SDS011;1798;48.486;9.232;2023-06-04T15:03:44;11.67;;;7.63;;
3567;SDS011;1798;48.486;9.232;2023-06-04T15:06:11;16.70;;;8.10;;
3567;SDS011;1798;48.486;9.232;2023-06-04T15:08:37;14.60;;;9.07;;